Time;durP1;ratioP1;P1;durP2;ratioP2;P2;SDS_P1;SDS_P2;PMS_P1;PMS_P2;Temp;Humidity;BMP_temperature;BMP_pressure;BME280_temperature;BME280_humidity;BME280_pressure;Samples;Min_cycle;Max_cycle;Signal;HPM_P1;HPM_P2
2022/07/29 00:01:52;;;;;;;6.80;6.20;;;16.20;77.60;;;;;;5025682;28;20615;-53
2022/07/29 00:04:18;;;;;;;7.90;7.20;;;16.20;78.40;;;;;;5008299;28;20208;-57
2022/07/29 00:06:44;;;;;;;6.73;6.13;;;16.20;79.10;;;;;;5006964;28;20454;-55
2022/07/29 00:09:09;;;;;;;8.10;6.17;;;16.20;79.40;;;;;;5019378;28;20508;-57
2022/07/29 00:11:35;;;;;;;7.63;5.97;;;16.20;80.70;;;;;;5014726;28;20245;-55
2022/07/29 00:14:01;;;;;;;9.80;7.03;;;16.20;81.70;;;;;;4997768;28;20190;-54
2022/07/29 00:16:26;;;;;;;8.97;6.57;;;16.10;82.60;;;;;;4999215;28;20224;-56
2022/07/29 00:18:52;;;;;;;7.10;6.40;;;16.00;83.40;;;;;;5009994;28;20213;-55
2022/07/29 00:21:17;;;;;;;9.07;6.87;;;16.00;84.20;;;;;;5008816;28;20192;-54
2022/07/29 00:23:43;;;;;;;7.57;6.67;;;16.00;85.10;;;;;;5013824;28;20634;-53
2022/07/29 00:26:08;;;;;;;7.27;6.60;;;15.90;86.30;;;;;;5010517;28;20192;-56
2022/07/29 00:28:34;;;;;;;7.00;6.40;;;15.90;89.10;;;;;;5013153;28;20191;-53
2022/07/29 00:31:00;;;;;;;7.93;7.27;;;15.80;90.20;;;;;;5013727;28;20221;-57
2022/07/29 00:33:25;;;;;;;8.10;7.47;;;15.80;91.10;;;;;;5013044;28;20651;-56
2022/07/29 00:35:51;;;;;;;8.90;7.10;;;15.80;91.70;;;;;;5017265;28;20212;-57
2022/07/29 00:38:18;;;;;;;9.73;8.90;;;15.70;92.10;;;;;;5011238;28;20215;-57
2022/07/29 00:40:45;;;;;;;8.40;7.73;;;15.70;92.50;;;;;;5024361;28;20221;-51
2022/07/29 00:43:12;;;;;;;14.50;9.13;;;15.60;93.20;;;;;;5010740;28;20475;-55
2022/07/29 00:45:38;;;;;;;9.30;8.30;;;15.60;94.00;;;;;;5014889;28;20444;-56
2022/07/29 00:48:04;;;;;;;8.67;8.03;;;15.60;95.20;;;;;;5016925;28;20458;-57
2022/07/29 00:50:31;;;;;;;10.30;9.30;;;15.50;95.60;;;;;;5011506;28;20207;-57
2022/07/29 00:52:57;;;;;;;10.17;9.00;;;15.50;96.10;;;;;;5011827;28;20435;-54
2022/07/29 00:55:23;;;;;;;11.60;10.50;;;15.50;96.90;;;;;;5011670;28;20446;-52
2022/07/29 00:57:49;;;;;;;12.13;10.93;;;15.40;97.60;;;;;;5014742;28;20461;-57
2022/07/29 01:00:19;;;;;;;11.37;10.20;;;15.50;97.30;;;;;;5015579;28;20235;-56
2022/07/29 01:02:48;;;;;;;10.87;9.83;;;15.50;97.00;;;;;;5021216;28;20415;-55
2022/07/29 01:05:15;;;;;;;11.77;10.60;;;15.40;97.00;;;;;;5019869;28;21124;-57
2022/07/29 01:07:41;;;;;;;13.23;11.93;;;15.30;97.70;;;;;;5021676;28;20425;-56
2022/07/29 01:10:11;;;;;;;13.50;12.10;;;15.20;98.00;;;;;;5018426;28;20488;-54
2022/07/29 01:12:38;;;;;;;12.47;11.37;;;15.20;98.60;;;;;;5011654;28;20847;-57
2022/07/29 01:15:06;;;;;;;14.80;13.27;;;15.10;99.40;;;;;;5025610;28;21142;-55
2022/07/29 01:18:01;;;;;;;17.40;15.73;;;15.10;99.90;;;;;;5014556;28;20445;-56
2022/07/29 01:21:10;;;;;;;18.50;16.50;;;15.00;99.90;;;;;;5012197;28;20548;-58
2022/07/29 01:23:44;;;;;;;22.10;17.97;;;15.00;99.90;;;;;;5022875;28;20440;-57
2022/07/29 01:26:28;;;;;;;26.00;18.70;;;14.90;99.90;;;;;;5013450;28;20422;-55
2022/07/29 01:29:22;;;;;;;22.93;20.80;;;14.90;99.90;;;;;;5011746;28;20450;-56
2022/07/29 01:32:09;;;;;;;26.60;24.00;;;14.80;99.90;;;;;;5018830;28;20820;-57
2022/07/29 01:34:44;;;;;;;27.67;24.93;;;14.80;99.90;;;;;;5006390;28;20430;-53
2022/07/29 01:37:36;;;;;;;29.47;26.63;;;14.80;99.90;;;;;;5011371;28;20465;-57
2022/07/29 01:40:04;;;;;;;31.73;28.20;;;14.80;99.90;;;;;;5012032;28;20513;-56
2022/07/29 01:42:42;;;;;;;32.40;29.30;;;14.70;99.90;;;;;;5020444;28;20438;-54
2022/07/29 01:45:32;;;;;;;30.57;27.37;;;14.70;99.90;;;;;;5011448;28;20513;-55
2022/07/29 01:48:05;;;;;;;29.07;26.23;;;14.80;99.90;;;;;;5016474;28;20524;-56
2022/07/29 01:50:39;;;;;;;26.50;24.10;;;14.70;99.90;;;;;;5003558;28;20430;-56
2022/07/29 01:53:09;;;;;;;27.10;24.50;;;14.70;99.90;;;;;;5009373;28;20440;-54
2022/07/29 01:55:38;;;;;;;25.50;23.20;;;14.70;99.90;;;;;;5013748;28;20962;-56
2022/07/29 01:58:05;;;;;;;24.80;22.43;;;14.70;99.90;;;;;;5018170;28;20492;-55
2022/07/29 02:00:32;;;;;;;25.17;22.67;;;14.70;99.90;;;;;;5020217;28;20452;-54
2022/07/29 02:03:02;;;;;;;26.00;23.40;;;14.70;99.90;;;;;;5023108;28;20417;-57
2022/07/29 02:05:30;;;;;;;23.60;21.10;;;14.70;99.90;;;;;;5011807;28;20441;-55
2022/07/29 02:07:58;;;;;;;24.03;21.60;;;14.70;99.90;;;;;;5008894;28;20478;-54
2022/07/29 02:10:26;;;;;;;25.97;23.47;;;14.70;99.90;;;;;;5022802;28;20445;-53
2022/07/29 02:12:53;;;;;;;29.50;26.80;;;14.70;99.90;;;;;;5027424;28;20484;-55
2022/07/29 02:15:19;;;;;;;29.67;26.57;;;14.70;99.90;;;;;;5020117;28;20442;-54
2022/07/29 02:18:09;;;;;;;31.67;28.57;;;14.70;99.90;;;;;;5017082;28;20449;-57
2022/07/29 02:20:35;;;;;;;31.20;28.43;;;14.70;99.90;;;;;;5014548;28;20770;-56
2022/07/29 02:23:02;;;;;;;34.00;30.60;;;14.60;99.90;;;;;;5020056;28;20460;-53
2022/07/29 02:25:29;;;;;;;33.00;29.80;;;14.60;99.90;;;;;;5019535;28;20438;-53
2022/07/29 02:27:56;;;;;;;31.47;28.47;;;14.60;99.90;;;;;;5015127;28;20923;-57
2022/07/29 02:30:23;;;;;;;37.70;33.93;;;14.70;99.90;;;;;;5022408;28;20427;-54
2022/07/29 02:32:50;;;;;;;37.30;33.77;;;14.60;99.90;;;;;;5015550;28;21014;-54
2022/07/29 02:35:18;;;;;;;37.87;34.27;;;14.70;99.90;;;;;;5019325;28;20488;-55
2022/07/29 02:37:45;;;;;;;38.70;35.00;;;14.70;99.90;;;;;;5015606;28;20444;-55
2022/07/29 02:40:13;;;;;;;39.07;35.10;;;14.70;99.90;;;;;;5025696;28;20463;-55
2022/07/29 02:42:43;;;;;;;37.53;33.60;;;14.70;99.90;;;;;;5009442;28;20447;-56
2022/07/29 02:45:10;;;;;;;40.03;35.80;;;14.70;99.90;;;;;;5006426;28;20803;-56
2022/07/29 02:47:47;;;;;;;37.30;33.60;;;14.70;99.90;;;;;;5009721;28;20438;-53
2022/07/29 02:50:17;;;;;;;36.87;33.07;;;14.70;99.90;;;;;;5009642;28;20431;-55
2022/07/29 02:53:19;;;;;;;38.03;34.47;;;14.70;99.90;;;;;;5011315;28;20488;-55
2022/07/29 02:56:03;;;;;;;36.77;33.10;;;14.80;99.90;;;;;;5014200;28;20470;-58
2022/07/29 02:58:34;;;;;;;39.47;35.33;;;14.70;99.90;;;;;;5026867;28;20473;-55
2022/07/29 03:01:04;;;;;;;43.87;39.73;;;14.70;99.90;;;;;;5013461;28;20896;-56
2022/07/29 03:03:34;;;;;;;42.00;38.00;;;14.70;99.90;;;;;;5027102;28;20858;-55
2022/07/29 03:06:02;;;;;;;41.23;37.10;;;14.70;99.90;;;;;;5011281;28;20474;-55
2022/07/29 03:08:29;;;;;;;41.37;37.57;;;14.60;99.90;;;;;;5017616;28;20472;-56
2022/07/29 03:10:55;;;;;;;37.57;34.13;;;14.50;99.90;;;;;;5025886;28;20434;-51
2022/07/29 03:13:21;;;;;;;38.57;34.90;;;14.50;99.90;;;;;;5009605;28;20936;-56
2022/07/29 03:15:47;;;;;;;35.57;32.27;;;14.50;99.90;;;;;;5008191;28;20438;-55
2022/07/29 03:18:14;;;;;;;35.67;32.07;;;14.50;99.90;;;;;;5004938;28;20446;-57
2022/07/29 03:20:40;;;;;;;36.17;32.33;;;14.50;99.90;;;;;;5017928;28;20430;-55
2022/07/29 03:23:07;;;;;;;34.20;31.20;;;14.50;99.90;;;;;;5018193;28;20446;-58
2022/07/29 03:25:33;;;;;;;34.73;31.23;;;14.50;99.90;;;;;;5008025;28;20563;-51
2022/07/29 03:27:59;;;;;;;32.73;29.53;;;14.60;99.90;;;;;;5014274;28;20469;-54
2022/07/29 03:30:25;;;;;;;30.93;28.20;;;14.60;99.90;;;;;;5012979;28;20193;-58
2022/07/29 03:32:52;;;;;;;31.40;28.60;;;14.60;99.90;;;;;;5016835;28;20537;-57
2022/07/29 03:35:21;;;;;;;30.33;27.27;;;14.60;99.90;;;;;;5021649;28;20936;-57
2022/07/29 03:37:47;;;;;;;31.23;27.77;;;14.60;99.90;;;;;;5018876;28;20431;-56
2022/07/29 03:40:17;;;;;;;31.00;28.00;;;14.70;99.90;;;;;;5010369;28;20921;-57
2022/07/29 03:42:45;;;;;;;33.40;30.07;;;14.70;99.90;;;;;;5011694;28;20192;-57
2022/07/29 03:45:17;;;;;;;35.40;31.90;;;14.70;99.90;;;;;;5011264;28;20991;-58
2022/07/29 03:47:48;;;;;;;36.00;32.60;;;14.70;99.90;;;;;;5022576;28;20464;-56
2022/07/29 03:50:15;;;;;;;38.30;34.50;;;14.70;99.90;;;;;;5005586;28;21185;-57
2022/07/29 03:52:41;;;;;;;39.13;35.20;;;14.80;99.90;;;;;;5011324;28;20422;-52
2022/07/29 03:55:08;;;;;;;39.03;35.10;;;14.80;99.90;;;;;;5010612;28;20458;-57
2022/07/29 03:57:35;;;;;;;38.03;34.03;;;14.80;99.90;;;;;;5020282;28;20778;-56
2022/07/29 04:00:03;;;;;;;39.73;35.90;;;14.70;99.90;;;;;;5037270;28;20560;-55
2022/07/29 04:02:29;;;;;;;37.40;33.70;;;14.60;99.90;;;;;;5024005;28;20433;-55
2022/07/29 04:04:55;;;;;;;37.07;33.53;;;14.60;99.90;;;;;;5012605;28;20500;-58
2022/07/29 04:07:20;;;;;;;37.73;33.90;;;14.60;99.90;;;;;;5005388;28;20442;-56
2022/07/29 04:09:46;;;;;;;38.97;34.97;;;14.60;99.90;;;;;;5004161;28;20557;-56
2022/07/29 04:12:12;;;;;;;37.03;33.10;;;14.70;99.90;;;;;;5007314;28;20354;-55
2022/07/29 04:14:37;;;;;;;38.20;34.30;;;14.70;99.90;;;;;;5009058;28;20194;-57
2022/07/29 04:17:04;;;;;;;37.47;34.03;;;14.70;99.90;;;;;;5014133;28;20659;-55
2022/07/29 04:19:30;;;;;;;39.03;35.13;;;14.80;99.90;;;;;;5011243;28;20234;-57
2022/07/29 04:21:56;;;;;;;38.03;34.03;;;14.70;99.90;;;;;;5005458;28;20984;-57
2022/07/29 04:24:22;;;;;;;37.83;34.23;;;14.80;99.90;;;;;;5004303;28;20474;-55
2022/07/29 04:26:48;;;;;;;39.00;34.93;;;14.80;99.90;;;;;;5004254;28;21056;-55
2022/07/29 04:29:14;;;;;;;39.77;34.67;;;14.90;99.90;;;;;;5010188;28;20215;-55
2022/07/29 04:31:41;;;;;;;36.57;32.87;;;14.90;99.90;;;;;;5004046;28;20422;-55
2022/07/29 04:34:06;;;;;;;39.23;35.40;;;14.90;99.90;;;;;;5011391;28;20529;-53
2022/07/29 04:36:32;;;;;;;38.87;34.93;;;15.00;99.90;;;;;;5024392;28;20524;-51
2022/07/29 04:38:58;;;;;;;37.57;33.83;;;15.10;99.90;;;;;;5027429;28;20647;-55
2022/07/29 04:41:23;;;;;;;36.90;33.33;;;15.20;99.90;;;;;;5025892;28;20289;-53
2022/07/29 04:43:49;;;;;;;35.90;32.40;;;15.20;99.90;;;;;;5022131;28;20903;-50
2022/07/29 04:46:15;;;;;;;38.13;33.70;;;15.30;99.90;;;;;;5012586;28;20198;-50
2022/07/29 04:48:40;;;;;;;35.60;32.30;;;15.40;99.90;;;;;;5012743;28;20211;-50
2022/07/29 04:51:06;;;;;;;37.17;33.40;;;15.50;99.90;;;;;;5012607;28;20406;-56
2022/07/29 04:53:32;;;;;;;38.77;35.07;;;15.60;99.90;;;;;;5011229;28;20658;-53
2022/07/29 04:55:58;;;;;;;39.80;36.17;;;15.60;99.90;;;;;;5012570;28;20667;-56
2022/07/29 04:58:23;;;;;;;41.87;37.40;;;15.70;99.90;;;;;;5012561;28;20714;-52
2022/07/29 05:00:49;;;;;;;43.10;38.83;;;15.80;99.90;;;;;;5013618;28;20197;-52
2022/07/29 05:03:15;;;;;;;46.70;41.80;;;15.90;99.90;;;;;;5023337;28;20195;-56
2022/07/29 05:05:42;;;;;;;45.20;40.90;;;15.90;99.90;;;;;;5024876;28;20427;-52
2022/07/29 05:08:07;;;;;;;49.63;44.50;;;15.80;99.90;;;;;;5010918;28;20616;-55
2022/07/29 05:10:37;;;;;;;46.23;41.57;;;15.80;99.90;;;;;;5028636;28;20454;-51
2022/07/29 05:13:04;;;;;;;48.63;43.47;;;15.90;99.90;;;;;;5016780;28;20239;-53
2022/07/29 05:15:29;;;;;;;57.73;51.83;;;16.00;99.90;;;;;;5028719;28;20436;-53
2022/07/29 05:17:55;;;;;;;59.00;52.80;;;16.10;99.90;;;;;;5018926;28;20481;-49
2022/07/29 05:20:25;;;;;;;58.70;52.80;;;16.00;99.90;;;;;;5022957;28;20272;-50
2022/07/29 05:22:51;;;;;;;58.57;52.87;;;16.10;99.90;;;;;;5003372;28;20185;-55
2022/07/29 05:25:16;;;;;;;57.07;50.90;;;16.00;99.90;;;;;;5003020;28;20458;-55
2022/07/29 05:27:42;;;;;;;54.80;49.10;;;16.00;99.90;;;;;;5014921;28;20197;-51
2022/07/29 05:30:08;;;;;;;50.93;46.20;;;16.10;99.90;;;;;;5018097;28;20963;-51
2022/07/29 05:32:34;;;;;;;51.70;46.47;;;16.10;99.90;;;;;;5016868;28;20187;-51
2022/07/29 05:34:59;;;;;;;46.20;41.23;;;16.40;99.90;;;;;;5005042;28;20435;-50
2022/07/29 05:37:25;;;;;;;44.40;40.10;;;16.50;99.90;;;;;;5012975;28;20187;-52
2022/07/29 05:39:51;;;;;;;43.33;38.67;;;16.50;99.90;;;;;;5011030;28;20252;-53
2022/07/29 05:42:16;;;;;;;43.47;38.90;;;16.60;99.90;;;;;;5022634;28;20236;-54
2022/07/29 05:44:42;;;;;;;40.00;35.80;;;16.70;99.90;;;;;;5025345;28;20208;-50
2022/07/29 05:47:07;;;;;;;39.17;35.40;;;16.90;99.90;;;;;;5017038;28;20193;-56
2022/07/29 05:49:33;;;;;;;39.73;35.57;;;17.00;99.90;;;;;;5028264;28;20212;-50
2022/07/29 05:51:58;;;;;;;37.10;33.67;;;17.20;99.90;;;;;;5013570;28;20184;-53
2022/07/29 05:54:25;;;;;;;37.47;33.53;;;17.40;99.50;;;;;;5014326;28;20218;-56
2022/07/29 05:56:51;;;;;;;36.73;31.53;;;17.50;99.20;;;;;;5017959;28;20191;-55
2022/07/29 05:59:16;;;;;;;36.10;32.50;;;17.70;97.20;;;;;;4990513;28;1189319;-53
2022/07/29 06:01:42;;;;;;;37.63;33.90;;;17.80;96.20;;;;;;5028517;28;20186;-53
2022/07/29 06:04:07;;;;;;;34.47;31.20;;;17.90;95.90;;;;;;5016349;28;20214;-56
2022/07/29 06:06:34;;;;;;;28.80;25.83;;;18.00;95.90;;;;;;5027113;28;20240;-52
2022/07/29 06:09:00;;;;;;;30.27;27.40;;;18.10;94.40;;;;;;5028844;28;20210;-56
2022/07/29 06:11:26;;;;;;;30.90;27.70;;;18.20;94.20;;;;;;5028474;28;20432;-55
2022/07/29 06:13:52;;;;;;;33.40;30.10;;;18.40;94.30;;;;;;5004009;28;20434;-54
2022/07/29 06:16:18;;;;;;;30.23;27.10;;;18.50;93.70;;;;;;5017700;28;20449;-53
2022/07/29 06:18:44;;;;;;;29.03;26.33;;;18.80;93.20;;;;;;5009370;28;20455;-52
2022/07/29 06:21:10;;;;;;;27.97;25.30;;;18.90;92.10;;;;;;5006046;28;20723;-56
2022/07/29 06:23:37;;;;;;;28.70;25.90;;;19.10;91.40;;;;;;5017769;28;20186;-51
2022/07/29 06:26:02;;;;;;;28.53;26.00;;;19.10;90.50;;;;;;5010713;28;20233;-54
2022/07/29 06:28:28;;;;;;;27.13;24.67;;;19.20;89.60;;;;;;5020201;28;21146;-57
2022/07/29 06:30:54;;;;;;;30.73;27.80;;;19.20;90.00;;;;;;5023741;28;20266;-55
2022/07/29 06:33:19;;;;;;;32.17;29.00;;;19.40;90.00;;;;;;5017406;28;20294;-56
2022/07/29 06:35:47;;;;;;;32.50;29.30;;;19.40;90.40;;;;;;5030305;28;20715;-51
2022/07/29 06:38:13;;;;;;;32.27;29.17;;;19.60;90.60;;;;;;5030288;28;20200;-53
2022/07/29 06:41:00;;;;;;;31.87;28.87;;;19.60;89.70;;;;;;5030039;28;20432;-55
2022/07/29 06:43:37;;;;;;;30.07;27.37;;;19.70;88.30;;;;;;5009943;28;20528;-53
2022/07/29 06:46:06;;;;;;;28.90;26.20;;;19.80;88.70;;;;;;5013630;28;20421;-51
2022/07/29 06:48:32;;;;;;;28.77;26.07;;;20.00;85.40;;;;;;5029792;28;20550;-56
2022/07/29 06:50:58;;;;;;;27.60;25.00;;;20.00;83.80;;;;;;5026024;28;20419;-54
2022/07/29 06:53:24;;;;;;;27.23;24.30;;;20.20;82.40;;;;;;5019813;28;20441;-51
2022/07/29 06:55:50;;;;;;;27.17;24.67;;;20.30;81.50;;;;;;5029878;28;20422;-54
2022/07/29 06:58:17;;;;;;;27.80;24.83;;;20.20;81.00;;;;;;5016422;28;20373;-54
2022/07/29 07:00:44;;;;;;;26.33;24.10;;;20.20;81.70;;;;;;5009386;28;20449;-56
2022/07/29 07:03:10;;;;;;;30.57;27.57;;;20.30;82.10;;;;;;5013204;28;20454;-52
2022/07/29 07:05:36;;;;;;;28.80;26.10;;;20.60;81.40;;;;;;5022604;28;20553;-55
2022/07/29 07:08:02;;;;;;;27.53;24.73;;;20.70;80.40;;;;;;5028143;28;21294;-53
2022/07/29 07:10:29;;;;;;;30.70;27.77;;;20.90;79.60;;;;;;5030048;28;20272;-53
2022/07/29 07:12:54;;;;;;;33.13;30.23;;;21.00;77.20;;;;;;5044752;28;20426;-53
2022/07/29 07:15:21;;;;;;;33.27;29.67;;;21.30;75.90;;;;;;5029791;28;20423;-54
2022/07/29 07:17:48;;;;;;;36.37;32.87;;;21.40;75.40;;;;;;5029415;28;20263;-52
2022/07/29 07:20:14;;;;;;;35.47;32.00;;;21.60;74.70;;;;;;5020878;28;20416;-56
2022/07/29 07:22:40;;;;;;;34.17;30.93;;;21.90;72.20;;;;;;5012109;28;20425;-56
2022/07/29 07:25:06;;;;;;;33.50;30.10;;;22.10;71.90;;;;;;5029426;28;20765;-53
2022/07/29 07:27:32;;;;;;;35.40;31.90;;;22.30;71.80;;;;;;5015162;28;20198;-52
2022/07/29 07:29:57;;;;;;;35.50;31.90;;;22.30;70.00;;;;;;5017829;28;20474;-53
2022/07/29 07:32:23;;;;;;;34.70;31.50;;;22.60;68.30;;;;;;5008077;28;20188;-51
2022/07/29 07:34:49;;;;;;;38.20;34.40;;;22.70;67.80;;;;;;5022470;28;20240;-56
2022/07/29 07:37:14;;;;;;;39.83;36.23;;;22.80;66.90;;;;;;5020068;28;20195;-52
2022/07/29 07:39:41;;;;;;;36.97;33.50;;;23.00;65.70;;;;;;5011578;28;20198;-54
2022/07/29 07:42:06;;;;;;;35.57;32.57;;;23.40;62.80;;;;;;5009410;28;20282;-54
2022/07/29 07:44:32;;;;;;;36.33;32.90;;;23.40;62.00;;;;;;5010031;28;20434;-55
2022/07/29 07:46:58;;;;;;;36.27;32.63;;;23.50;59.80;;;;;;5019800;28;20187;-54
2022/07/29 07:49:24;;;;;;;33.97;30.83;;;23.40;59.80;;;;;;5027476;28;20719;-56
2022/07/29 07:51:49;;;;;;;34.37;31.43;;;23.50;59.20;;;;;;5023294;28;20180;-54
2022/07/29 07:54:15;;;;;;;35.80;32.37;;;23.50;58.70;;;;;;5009786;28;20536;-54
2022/07/29 07:56:41;;;;;;;35.00;31.77;;;23.50;58.50;;;;;;5009936;28;20947;-57
2022/07/29 07:59:06;;;;;;;35.60;32.20;;;23.70;57.80;;;;;;5007909;28;20231;-57
2022/07/29 08:01:32;;;;;;;33.53;30.60;;;23.80;57.90;;;;;;5009568;28;20175;-56
2022/07/29 08:03:57;;;;;;;31.73;28.57;;;23.90;57.90;;;;;;5009434;28;20164;-51
2022/07/29 08:06:24;;;;;;;32.93;29.63;;;24.20;57.50;;;;;;5009418;28;20181;-55
2022/07/29 08:08:50;;;;;;;30.80;27.87;;;24.50;56.50;;;;;;5009369;28;20207;-56
2022/07/29 08:11:16;;;;;;;30.23;27.50;;;24.60;55.00;;;;;;5009712;28;20414;-53
2022/07/29 08:13:42;;;;;;;29.30;26.50;;;24.90;54.70;;;;;;5009376;28;20164;-56
2022/07/29 08:16:11;;;;;;;30.10;27.30;;;25.00;54.50;;;;;;5009568;28;20427;-51
2022/07/29 08:18:38;;;;;;;29.17;26.57;;;25.20;53.50;;;;;;5009321;28;20905;-56
2022/07/29 08:21:04;;;;;;;27.83;25.30;;;25.50;53.40;;;;;;5009155;28;20421;-55
2022/07/29 08:23:38;;;;;;;27.30;24.70;;;25.80;53.00;;;;;;5009295;28;20859;-56
2022/07/29 08:26:10;;;;;;;27.33;24.83;;;26.00;52.30;;;;;;5009425;28;20159;-56
2022/07/29 08:28:39;;;;;;;27.60;24.87;;;26.20;51.20;;;;;;5009388;28;20452;-56
2022/07/29 08:31:05;;;;;;;25.77;23.57;;;26.30;50.40;;;;;;5007923;28;20444;-55
2022/07/29 08:33:31;;;;;;;26.47;23.90;;;26.30;50.50;;;;;;5007830;28;20457;-54
2022/07/29 08:35:56;;;;;;;26.90;24.60;;;26.60;49.70;;;;;;5009148;28;20480;-54
2022/07/29 08:38:22;;;;;;;25.83;23.63;;;26.50;50.10;;;;;;5009453;28;20246;-56
2022/07/29 08:40:48;;;;;;;25.77;23.43;;;26.80;48.80;;;;;;5009410;28;20192;-56
2022/07/29 08:43:14;;;;;;;26.47;24.23;;;26.90;47.90;;;;;;5009161;28;20172;-53
2022/07/29 08:45:45;;;;;;;26.77;24.33;;;27.30;47.00;;;;;;5008525;28;20752;-56
2022/07/29 08:48:15;;;;;;;24.27;22.13;;;27.40;46.30;;;;;;5006113;28;20191;-54
2022/07/29 08:50:42;;;;;;;25.93;23.67;;;27.40;46.00;;;;;;5008904;28;20418;-51
2022/07/29 08:53:11;;;;;;;25.33;22.80;;;27.70;45.10;;;;;;5029650;28;20418;-55
2022/07/29 08:55:42;;;;;;;26.23;23.70;;;27.80;44.60;;;;;;5030593;28;20426;-56
2022/07/29 08:58:08;;;;;;;24.43;22.23;;;28.00;43.90;;;;;;5017954;28;20421;-57
2022/07/29 09:00:36;;;;;;;22.60;20.63;;;28.10;43.40;;;;;;5024994;28;20445;-52
2022/07/29 09:03:04;;;;;;;24.47;22.27;;;28.20;42.90;;;;;;5029589;28;20414;-55
2022/07/29 09:05:31;;;;;;;21.80;19.83;;;28.50;42.40;;;;;;5020603;28;20483;-55
2022/07/29 09:07:57;;;;;;;22.50;20.20;;;28.60;40.40;;;;;;5030005;28;20911;-56
2022/07/29 09:10:23;;;;;;;23.17;20.80;;;28.70;40.10;;;;;;5032364;28;20421;-54
2022/07/29 09:12:48;;;;;;;22.10;20.20;;;29.00;39.60;;;;;;5031755;28;20183;-52
2022/07/29 09:15:14;;;;;;;21.93;20.13;;;29.20;38.50;;;;;;5030283;28;20204;-55
2022/07/29 09:17:43;;;;;;;21.23;19.60;;;29.40;38.50;;;;;;5031602;28;20217;-52
2022/07/29 09:20:14;;;;;;;21.70;19.80;;;29.60;38.40;;;;;;5012237;28;20706;-54
2022/07/29 09:22:40;;;;;;;23.23;21.33;;;29.80;38.20;;;;;;5020090;28;20418;-52
2022/07/29 09:25:06;;;;;;;24.00;22.10;;;30.00;37.90;;;;;;5029930;28;20429;-55
2022/07/29 09:27:32;;;;;;;22.37;20.47;;;30.40;36.90;;;;;;5030025;28;20187;-55
2022/07/29 09:30:12;;;;;;;22.30;20.40;;;30.70;35.70;;;;;;5018346;28;20497;-57
2022/07/29 09:32:58;;;;;;;21.47;19.67;;;31.40;35.30;;;;;;5010003;28;20406;-56
2022/07/29 09:35:25;;;;;;;22.97;20.90;;;31.40;33.20;;;;;;5017306;28;20781;-56
2022/07/29 09:37:51;;;;;;;22.40;20.43;;;31.40;31.60;;;;;;5031230;28;20935;-55
2022/07/29 09:40:20;;;;;;;22.23;20.40;;;31.60;32.00;;;;;;5027982;28;20426;-57
2022/07/29 09:42:46;;;;;;;21.97;20.07;;;32.00;31.20;;;;;;5011611;28;20188;-54
2022/07/29 09:45:12;;;;;;;20.17;18.53;;;32.20;30.40;;;;;;5016090;28;20948;-54
2022/07/29 09:47:48;;;;;;;21.63;19.70;;;32.50;29.90;;;;;;5013590;28;20437;-56
2022/07/29 09:50:15;;;;;;;20.30;18.50;;;32.40;28.70;;;;;;5031157;28;20476;-54
2022/07/29 09:52:49;;;;;;;20.77;19.00;;;32.50;28.90;;;;;;5011663;28;20522;-50
2022/07/29 09:55:15;;;;;;;20.60;19.00;;;32.60;28.60;;;;;;5031365;28;20421;-52
2022/07/29 09:57:42;;;;;;;20.40;18.60;;;32.80;28.40;;;;;;5031094;28;20504;-55
2022/07/29 10:00:14;;;;;;;20.60;19.00;;;33.00;27.70;;;;;;5016303;28;20954;-55
2022/07/29 10:02:42;;;;;;;18.17;16.70;;;33.10;27.30;;;;;;5018467;28;20564;-53
2022/07/29 10:05:20;;;;;;;17.87;16.40;;;33.30;26.70;;;;;;5029112;28;20491;-56
2022/07/29 10:07:57;;;;;;;17.50;16.20;;;33.70;26.90;;;;;;5011170;28;20437;-54
2022/07/29 10:10:26;;;;;;;16.90;15.50;;;33.80;26.20;;;;;;5027427;28;20790;-54
2022/07/29 10:13:03;;;;;;;15.60;14.23;;;33.80;26.80;;;;;;5030950;28;20418;-54
2022/07/29 10:15:31;;;;;;;15.90;14.53;;;34.30;25.50;;;;;;5016285;28;20420;-54
2022/07/29 10:17:58;;;;;;;14.87;13.77;;;34.60;25.10;;;;;;5030809;28;20841;-54
2022/07/29 10:20:24;;;;;;;13.70;12.70;;;35.30;24.50;;;;;;5013136;28;20836;-56
2022/07/29 10:22:51;;;;;;;13.00;12.00;;;35.90;23.30;;;;;;5010880;28;20438;-56
2022/07/29 10:25:17;;;;;;;11.97;11.23;;;36.50;22.40;;;;;;5011045;28;20403;-54
2022/07/29 10:27:45;;;;;;;9.87;9.23;;;36.80;22.30;;;;;;5011083;28;20383;-53
2022/07/29 10:30:12;;;;;;;8.87;8.23;;;37.00;20.80;;;;;;5008412;28;20488;-55
2022/07/29 10:32:58;;;;;;;7.93;7.50;;;37.50;20.20;;;;;;5010937;28;20415;-55
2022/07/29 10:35:33;;;;;;;8.47;7.53;;;37.70;19.20;;;;;;5010868;28;20778;-57
2022/07/29 10:38:18;;;;;;;7.20;6.80;;;37.60;18.70;;;;;;5010825;28;20489;-57
2022/07/29 10:44:08;;;;;;;6.63;6.33;;;36.40;19.20;;;;;;5014412;28;20498;-57
2022/07/29 10:46:36;;;;;;;7.00;6.47;;;36.30;19.60;;;;;;5010191;28;20833;-57
2022/07/29 10:49:19;;;;;;;6.63;6.23;;;36.80;19.40;;;;;;5011438;28;20505;-55
2022/07/29 10:51:50;;;;;;;7.03;6.63;;;37.40;18.00;;;;;;5019309;28;20488;-53
2022/07/29 10:54:17;;;;;;;7.20;6.80;;;36.20;18.50;;;;;;5012840;28;20524;-53
2022/07/29 10:56:43;;;;;;;7.63;7.27;;;35.90;19.70;;;;;;5030034;28;20429;-56
2022/07/29 10:59:20;;;;;;;8.03;7.40;;;36.00;19.50;;;;;;5019054;28;20833;-57
2022/07/29 11:01:50;;;;;;;7.50;7.17;;;36.10;19.90;;;;;;5019981;28;20285;-56
2022/07/29 11:04:37;;;;;;;7.70;7.10;;;36.40;19.80;;;;;;5025615;28;20505;-55
2022/07/29 11:07:02;;;;;;;6.93;6.60;;;36.90;18.50;;;;;;5009569;28;20438;-55
2022/07/29 11:09:30;;;;;;;6.90;6.47;;;37.60;18.10;;;;;;5005943;28;20446;-53
2022/07/29 11:11:56;;;;;;;7.63;7.20;;;37.60;18.00;;;;;;5021799;28;20179;-54
2022/07/29 11:14:53;;;;;;;6.70;6.40;;;37.30;17.10;;;;;;5029340;28;20511;-55
2022/07/29 11:17:18;;;;;;;7.90;7.40;;;37.70;17.60;;;;;;5028017;28;20425;-53
2022/07/29 11:19:44;;;;;;;7.43;7.03;;;37.80;17.20;;;;;;5029580;28;20472;-52
2022/07/29 11:22:11;;;;;;;7.23;6.70;;;37.50;16.60;;;;;;5028601;28;20795;-53
2022/07/29 11:24:37;;;;;;;7.40;6.80;;;37.10;18.20;;;;;;5003287;28;20183;-56
2022/07/29 11:27:39;;;;;;;7.57;7.13;;;37.90;18.20;;;;;;5029577;28;20440;-56
2022/07/29 11:30:05;;;;;;;7.57;7.13;;;38.70;17.10;;;;;;5019663;28;20807;-55
2022/07/29 11:32:38;;;;;;;7.97;7.47;;;39.60;16.20;;;;;;5022845;28;20421;-54
2022/07/29 11:35:10;;;;;;;7.47;7.07;;;39.30;16.00;;;;;;5044770;28;20430;-56
2022/07/29 11:37:36;;;;;;;7.13;6.70;;;39.50;15.80;;;;;;5016075;28;20465;-55
2022/07/29 11:40:04;;;;;;;7.80;7.10;;;39.40;15.70;;;;;;5018584;28;20466;-54
2022/07/29 11:42:37;;;;;;;7.43;6.93;;;39.60;15.60;;;;;;5024097;28;20179;-56
2022/07/29 11:45:05;;;;;;;8.63;8.23;;;39.50;15.70;;;;;;5020082;28;20505;-56
2022/07/29 11:47:33;;;;;;;8.70;8.20;;;38.90;16.20;;;;;;5024918;28;20509;-56
2022/07/29 11:50:01;;;;;;;8.20;7.80;;;38.70;16.70;;;;;;5044530;28;20429;-56
2022/07/29 11:52:45;;;;;;;7.90;7.40;;;37.90;17.50;;;;;;5010809;28;20419;-55
2022/07/29 11:55:16;;;;;;;7.70;7.30;;;37.80;17.60;;;;;;5009313;28;20414;-55
2022/07/29 11:57:54;;;;;;;8.70;8.23;;;37.80;17.30;;;;;;5027134;28;20413;-54
2022/07/29 12:00:23;;;;;;;8.70;8.03;;;37.90;17.60;;;;;;5028859;28;20477;-54
2022/07/29 12:02:48;;;;;;;8.20;7.80;;;37.80;17.60;;;;;;5029321;28;20417;-55
2022/07/29 12:05:14;;;;;;;8.03;7.47;;;38.00;17.50;;;;;;5029175;28;20422;-57
2022/07/29 12:07:40;;;;;;;8.40;7.90;;;37.80;17.30;;;;;;5005383;28;20175;-54
2022/07/29 12:10:07;;;;;;;8.77;8.30;;;37.90;17.70;;;;;;5007920;28;20469;-56
2022/07/29 12:12:34;;;;;;;9.43;8.63;;;37.90;17.30;;;;;;5009595;28;20502;-57
2022/07/29 12:15:18;;;;;;;8.83;8.33;;;36.50;17.70;;;;;;5009473;28;21085;-57
2022/07/29 12:17:44;;;;;;;8.80;8.20;;;36.10;18.80;;;;;;5008775;28;20405;-58
2022/07/29 12:20:10;;;;;;;9.27;8.60;;;36.50;18.80;;;;;;5009334;28;20454;-56
2022/07/29 12:22:40;;;;;;;8.10;7.60;;;36.80;18.40;;;;;;5009277;28;20199;-54
2022/07/29 12:25:11;;;;;;;8.00;7.60;;;36.60;18.40;;;;;;5007553;28;20241;-57
2022/07/29 12:27:38;;;;;;;8.00;7.40;;;36.90;18.80;;;;;;5009883;28;20466;-56
2022/07/29 12:30:08;;;;;;;7.97;7.47;;;37.30;18.00;;;;;;5013242;28;20440;-57
2022/07/29 12:32:39;;;;;;;8.13;7.63;;;37.20;17.80;;;;;;5013036;28;20450;-55
2022/07/29 12:35:11;;;;;;;7.67;7.27;;;37.50;17.60;;;;;;5011358;28;20442;-56
2022/07/29 12:37:38;;;;;;;7.53;7.13;;;37.90;17.90;;;;;;5023053;28;20479;-55
2022/07/29 12:40:05;;;;;;;8.60;7.90;;;38.80;16.80;;;;;;5009721;28;20486;-57
2022/07/29 12:42:31;;;;;;;8.37;7.97;;;39.00;16.20;;;;;;5027399;28;20796;-57